createdAt,value
2019-04-04T00:00:34.008Z,76.60
2019-04-04T00:03:02.937Z,77.70
2019-04-04T00:05:31.626Z,78.50
2019-04-04T00:08:00.633Z,79.60
2019-04-04T00:10:29.632Z,80.20
2019-04-04T00:12:58.300Z,80.80
2019-04-04T00:15:26.940Z,79.50
2019-04-04T00:17:55.613Z,81.60
2019-04-04T00:20:24.299Z,82.00
2019-04-04T00:22:52.975Z,82.40
2019-04-04T00:25:21.600Z,82.70
2019-04-04T00:27:50.301Z,82.60
2019-04-04T00:30:18.991Z,82.20
2019-04-04T00:32:47.615Z,82.50
2019-04-04T00:35:16.294Z,81.60
2019-04-04T00:37:44.923Z,79.80
2019-04-04T00:40:13.537Z,79.10
2019-04-04T00:42:42.221Z,79.70
2019-04-04T00:45:10.935Z,80.90
2019-04-04T00:47:39.622Z,81.00
2019-04-04T00:50:08.317Z,79.50
2019-04-04T00:52:36.987Z,78.70
2019-04-04T00:55:06.670Z,79.60
2019-04-04T00:57:35.691Z,79.10
2019-04-04T01:00:06.651Z,78.60
2019-04-04T01:02:35.563Z,79.10
2019-04-04T01:05:05.923Z,80.00
2019-04-04T01:07:35.809Z,80.80
2019-04-04T01:10:07.076Z,79.50
2019-04-04T01:12:36.075Z,79.90
2019-04-04T01:15:05.911Z,81.40
2019-04-04T01:17:35.644Z,80.70
2019-04-04T01:20:07.169Z,81.70
2019-04-04T01:22:36.103Z,80.80
2019-04-04T01:25:06.140Z,79.70
2019-04-04T01:27:36.969Z,80.70
2019-04-04T01:30:06.754Z,81.20
2019-04-04T01:32:35.741Z,80.70
2019-04-04T01:35:08.770Z,80.70
2019-04-04T01:37:37.677Z,80.30
2019-04-04T01:40:06.388Z,80.60
2019-04-04T01:42:37.775Z,79.90
2019-04-04T01:45:07.386Z,80.60
2019-04-04T01:47:36.378Z,80.50
2019-04-04T01:50:05.671Z,80.40
2019-04-04T01:52:34.655Z,80.60
2019-04-04T01:55:04.198Z,80.60
2019-04-04T01:57:33.185Z,80.40
2019-04-04T02:00:01.795Z,80.40
2019-04-04T02:02:30.519Z,80.40
2019-04-04T02:04:59.194Z,81.00
2019-04-04T02:07:29.896Z,80.50
2019-04-04T02:09:58.528Z,81.40
2019-04-04T02:12:27.240Z,81.70
2019-04-04T02:14:55.899Z,80.60
2019-04-04T02:17:24.515Z,80.50
2019-04-04T02:19:55.653Z,80.40
2019-04-04T02:22:23.795Z,80.90
2019-04-04T02:24:52.430Z,81.70
2019-04-04T02:27:21.049Z,81.80
2019-04-04T02:29:49.662Z,81.90
2019-04-04T02:32:20.005Z,82.10
2019-04-04T02:34:48.993Z,82.50
2019-04-04T02:37:20.625Z,82.50
2019-04-04T02:39:48.296Z,82.10
2019-04-04T02:42:20.965Z,82.20
2019-04-04T02:44:47.606Z,82.20
2019-04-04T02:47:17.508Z,81.60
2019-04-04T02:49:46.916Z,81.40
2019-04-04T02:52:15.604Z,81.60
2019-04-04T02:54:44.286Z,81.50
2019-04-04T02:57:12.932Z,81.50
2019-04-04T02:59:41.594Z,81.50
2019-04-04T03:02:10.332Z,82.00
2019-04-04T03:04:38.968Z,82.00
2019-04-04T03:07:07.652Z,81.90
2019-04-04T03:09:36.257Z,82.00
2019-04-04T03:12:04.886Z,82.30
2019-04-04T03:14:36.333Z,83.00
2019-04-04T03:17:04.233Z,82.80
2019-04-04T03:19:32.906Z,82.90
2019-04-04T03:22:01.614Z,82.10
2019-04-04T03:24:30.283Z,82.60
2019-04-04T03:26:58.965Z,83.50
2019-04-04T03:29:27.657Z,84.00
2019-04-04T03:31:56.361Z,83.70
2019-04-04T03:34:25.023Z,83.30
2019-04-04T03:36:53.730Z,83.20
2019-04-04T03:39:22.418Z,82.50
2019-04-04T03:41:51.110Z,82.80
2019-04-04T03:44:20.654Z,82.40
2019-04-04T03:46:49.710Z,82.40
2019-04-04T03:49:23.083Z,81.90
2019-04-04T03:51:49.020Z,82.20
2019-04-04T03:54:22.337Z,82.50
2019-04-04T03:56:49.897Z,82.60
2019-04-04T03:59:18.553Z,83.00
2019-04-04T04:01:47.243Z,82.60
2019-04-04T04:04:15.900Z,82.50
2019-04-04T04:06:44.566Z,82.70
2019-04-04T04:09:13.257Z,82.50
2019-04-04T04:11:41.912Z,82.40
2019-04-04T04:14:10.615Z,82.30
2019-04-04T04:16:39.295Z,82.50
2019-04-04T04:19:08.066Z,83.10
2019-04-04T04:21:36.751Z,83.00
2019-04-04T04:24:05.468Z,82.70
2019-04-04T04:26:34.172Z,83.00
2019-04-04T04:29:02.855Z,83.30
2019-04-04T04:31:31.458Z,83.20
2019-04-04T04:34:01.606Z,83.10
2019-04-04T04:36:32.195Z,83.10
2019-04-04T04:39:01.237Z,83.20
2019-04-04T04:41:29.863Z,83.90
2019-04-04T04:43:58.560Z,83.80
2019-04-04T04:46:27.241Z,84.20
2019-04-04T04:48:55.860Z,83.90
2019-04-04T04:51:24.464Z,83.50
2019-04-04T04:53:53.085Z,83.40
2019-04-04T04:56:21.697Z,83.60
2019-04-04T04:58:50.407Z,84.00
2019-04-04T05:01:19.218Z,84.00
2019-04-04T05:03:50.600Z,84.40
2019-04-04T05:06:18.512Z,84.20
2019-04-04T05:08:47.213Z,84.10
2019-04-04T05:11:18.649Z,83.90
2019-04-04T05:13:46.479Z,82.60
2019-04-04T05:16:15.110Z,82.60
2019-04-04T05:18:43.789Z,83.30
2019-04-04T05:21:24.143Z,83.50
2019-04-04T05:23:43.115Z,83.80
2019-04-04T05:26:11.808Z,83.90
2019-04-04T05:28:42.112Z,84.30
2019-04-04T05:31:11.115Z,84.20
2019-04-04T05:33:39.735Z,83.60
2019-04-04T05:36:08.348Z,82.30
2019-04-04T05:38:37.070Z,82.40
2019-04-04T05:41:05.719Z,82.20
2019-04-04T05:43:35.283Z,82.20
2019-04-04T05:46:05.017Z,81.40
2019-04-04T05:48:33.660Z,82.30
2019-04-04T05:51:02.303Z,81.90
2019-04-04T05:53:30.930Z,81.90
2019-04-04T05:55:59.531Z,82.10
2019-04-04T05:58:28.149Z,82.20
2019-04-04T06:00:57.851Z,82.10
2019-04-04T06:03:26.913Z,82.30
2019-04-04T06:05:55.602Z,81.80
2019-04-04T06:08:24.266Z,82.70
2019-04-04T06:10:52.951Z,82.90
2019-04-04T06:13:22.326Z,83.70
2019-04-04T06:15:51.329Z,84.60
2019-04-04T06:18:20.010Z,84.40
2019-04-04T06:20:49.084Z,83.00
2019-04-04T06:23:16.836Z,83.60
2019-04-04T06:25:45.246Z,82.90
2019-04-04T06:28:13.912Z,83.10
2019-04-04T06:30:43.667Z,83.50
2019-04-04T06:33:12.807Z,83.60
2019-04-04T06:35:41.506Z,83.50
2019-04-04T06:38:10.181Z,82.70
2019-04-04T06:40:38.801Z,82.00
2019-04-04T06:43:10.667Z,82.50
2019-04-04T06:45:38.127Z,82.50
2019-04-04T06:48:06.800Z,81.80
2019-04-04T06:50:38.855Z,81.10
2019-04-04T06:53:06.130Z,80.60
2019-04-04T06:55:39.755Z,81.30
2019-04-04T06:58:08.340Z,82.30
2019-04-04T07:00:36.192Z,82.00
2019-04-04T07:03:04.818Z,80.60
2019-04-04T07:05:33.430Z,80.50
2019-04-04T07:08:02.040Z,81.60
2019-04-04T07:10:30.817Z,81.30
2019-04-04T07:13:09.680Z,81.00
2019-04-04T07:15:30.108Z,80.90
2019-04-04T07:17:58.720Z,81.90
2019-04-04T07:20:28.601Z,80.60
2019-04-04T07:22:57.621Z,80.60
2019-04-04T07:25:26.308Z,80.00
2019-04-04T07:27:54.926Z,80.20
2019-04-04T07:30:23.604Z,79.30
2019-04-04T07:32:52.212Z,78.50
2019-04-04T07:35:21.196Z,79.90
2019-04-04T07:37:53.373Z,80.10
2019-04-04T07:40:20.817Z,79.50
2019-04-04T07:42:49.476Z,79.00
2019-04-04T07:45:18.179Z,79.60
2019-04-04T07:47:47.735Z,79.50
2019-04-04T07:50:16.754Z,78.70
2019-04-04T07:52:45.429Z,78.30
2019-04-04T07:55:14.122Z,78.50
2019-04-04T07:57:42.727Z,78.30
2019-04-04T08:00:11.417Z,79.30
2019-04-04T08:02:40.032Z,78.90
2019-04-04T08:05:09.111Z,77.60
2019-04-04T08:07:38.093Z,76.50
2019-04-04T08:10:19.570Z,76.30
2019-04-04T08:12:37.422Z,76.10
2019-04-04T08:15:06.754Z,77.30
2019-04-04T08:17:35.729Z,76.10
2019-04-04T08:20:05.665Z,77.30
2019-04-04T08:22:34.643Z,75.70
2019-04-04T08:25:03.504Z,75.10
2019-04-04T08:27:31.917Z,75.60
2019-04-04T08:30:00.595Z,75.70
2019-04-04T08:32:29.232Z,73.60
2019-04-04T08:34:57.834Z,72.60
2019-04-04T08:37:26.463Z,72.50
2019-04-04T08:39:55.083Z,72.60
2019-04-04T08:42:23.738Z,73.10
2019-04-04T08:44:52.399Z,72.30
2019-04-04T08:47:21.048Z,72.50
2019-04-04T08:49:49.735Z,72.40
2019-04-04T08:52:20.748Z,72.30
2019-04-04T08:54:49.046Z,72.60
2019-04-04T08:57:17.757Z,70.70
2019-04-04T08:59:46.444Z,70.70
2019-04-04T09:02:15.159Z,70.80
2019-04-04T09:04:43.762Z,70.80
2019-04-04T09:07:12.385Z,70.80
2019-04-04T09:09:41.205Z,70.80
2019-04-04T09:12:09.869Z,70.80
2019-04-04T09:14:40.983Z,70.90
2019-04-04T09:17:09.117Z,69.40
2019-04-04T09:19:37.750Z,69.70
2019-04-04T09:22:06.443Z,70.60
2019-04-04T09:24:36.127Z,72.10
2019-04-04T09:27:05.124Z,70.30
2019-04-04T09:29:33.799Z,70.70
2019-04-04T09:32:02.559Z,69.90
2019-04-04T09:34:31.164Z,69.90
2019-04-04T09:36:59.864Z,70.90
2019-04-04T09:39:28.472Z,70.00
2019-04-04T09:41:57.131Z,69.90
2019-04-04T09:44:25.829Z,69.30
2019-04-04T09:47:04.872Z,68.40
2019-04-04T09:49:25.151Z,68.90
2019-04-04T09:51:53.747Z,69.70
2019-04-04T09:54:22.450Z,69.20
2019-04-04T09:56:51.128Z,68.70
2019-04-04T09:59:19.850Z,69.60
2019-04-04T10:01:48.523Z,69.70
2019-04-04T10:04:17.600Z,70.10
2019-04-04T10:06:46.602Z,69.60
2019-04-04T10:09:16.315Z,69.70
2019-04-04T10:11:45.916Z,69.70
2019-04-04T10:14:14.580Z,69.50
2019-04-04T10:16:43.285Z,69.40
2019-04-04T10:19:11.957Z,69.40
2019-04-04T10:21:40.632Z,68.50
2019-04-04T10:24:09.257Z,69.00
2019-04-04T10:26:37.941Z,69.10
2019-04-04T10:29:06.652Z,68.90
2019-04-04T10:31:35.320Z,69.30
2019-04-04T10:34:04.032Z,68.60
2019-04-04T10:36:32.703Z,68.50
2019-04-04T10:39:01.323Z,68.90
2019-04-04T10:41:30.030Z,69.10
2019-04-04T10:43:58.714Z,68.70
2019-04-04T10:46:27.436Z,68.60
2019-04-04T10:48:56.065Z,68.70
2019-04-04T10:51:24.754Z,68.60
2019-04-04T10:53:53.442Z,68.30
2019-04-04T10:56:22.038Z,68.30
2019-04-04T10:58:50.682Z,68.60
2019-04-04T11:01:19.351Z,69.00
2019-04-04T11:03:48.051Z,69.80
2019-04-04T11:06:16.756Z,69.70
2019-04-04T11:08:45.369Z,70.10
2019-04-04T11:11:14.060Z,70.50
2019-04-04T11:13:42.757Z,69.40
2019-04-04T11:16:11.461Z,69.00
2019-04-04T11:18:40.140Z,68.60
2019-04-04T11:21:08.888Z,68.50
2019-04-04T11:23:37.580Z,68.60
2019-04-04T11:26:06.256Z,69.10
2019-04-04T11:28:34.962Z,68.90
2019-04-04T11:31:03.703Z,69.30
2019-04-04T11:33:32.405Z,68.50
2019-04-04T11:36:01.106Z,68.50
2019-04-04T11:38:29.836Z,68.50
2019-04-04T11:40:58.516Z,69.00
2019-04-04T11:43:27.137Z,69.10
2019-04-04T11:45:55.767Z,69.00
2019-04-04T11:48:24.439Z,68.00
2019-04-04T11:50:53.168Z,68.00
2019-04-04T11:53:21.779Z,67.90
2019-04-04T11:55:50.467Z,67.90
2019-04-04T11:58:19.114Z,68.00
2019-04-04T12:00:49.426Z,67.90
2019-04-04T12:03:18.420Z,67.40
2019-04-04T12:05:47.014Z,67.70
2019-04-04T12:08:15.688Z,67.90
2019-04-04T12:10:44.289Z,67.70
2019-04-04T12:13:12.982Z,67.90
2019-04-04T12:15:41.688Z,67.90
2019-04-04T12:18:10.359Z,68.30
2019-04-04T12:20:39.063Z,67.90
2019-04-04T12:23:07.749Z,67.80
2019-04-04T12:25:36.450Z,67.50
2019-04-04T12:28:05.041Z,67.60
2019-04-04T12:30:33.676Z,67.80
2019-04-04T12:33:02.411Z,68.20
2019-04-04T12:35:31.041Z,68.40
2019-04-04T12:37:59.739Z,68.30
2019-04-04T12:40:28.419Z,68.10
2019-04-04T12:42:57.060Z,68.30
2019-04-04T12:45:25.745Z,67.60
2019-04-04T12:47:54.429Z,68.10
2019-04-04T12:50:23.189Z,68.30
2019-04-04T12:52:51.815Z,68.10
2019-04-04T12:55:20.507Z,68.00
2019-04-04T12:57:49.190Z,68.30
2019-04-04T13:00:17.882Z,68.10
2019-04-04T13:02:46.555Z,68.10
2019-04-04T13:05:15.223Z,67.20
2019-04-04T13:07:43.876Z,66.60
2019-04-04T13:10:12.546Z,66.80
2019-04-04T13:12:41.255Z,67.40
2019-04-04T13:15:11.150Z,65.60
2019-04-04T13:17:39.816Z,65.70
2019-04-04T13:20:08.584Z,65.90
2019-04-04T13:22:37.267Z,66.90
2019-04-04T13:25:07.284Z,66.30
2019-04-04T13:27:35.971Z,66.30
2019-04-04T13:30:07.926Z,66.20
2019-04-04T13:32:36.904Z,66.50
2019-04-04T13:35:05.998Z,66.50
2019-04-04T13:37:34.989Z,65.70
2019-04-04T13:40:05.606Z,65.80
2019-04-04T13:42:34.601Z,65.80
2019-04-04T13:45:04.053Z,65.30
2019-04-04T13:47:32.715Z,65.20
2019-04-04T13:50:01.361Z,64.70
2019-04-04T13:52:29.989Z,63.70
2019-04-04T13:54:58.610Z,62.60
2019-04-04T13:57:27.304Z,61.70
2019-04-04T13:59:55.910Z,61.20
2019-04-04T14:02:24.555Z,61.70
2019-04-04T14:04:55.343Z,62.00
2019-04-04T14:07:23.875Z,62.40
2019-04-04T14:09:52.483Z,61.30
2019-04-04T14:12:21.142Z,59.70
2019-04-04T14:14:49.753Z,55.60
2019-04-04T14:17:18.434Z,54.50
2019-04-04T14:19:47.131Z,55.30
2019-04-04T14:22:15.750Z,54.70
2019-04-04T14:24:44.163Z,51.30
2019-04-04T14:27:12.583Z,49.10
2019-04-04T14:29:40.979Z,47.40
2019-04-04T14:32:09.296Z,48.50
2019-04-04T14:34:37.942Z,50.40
2019-04-04T14:37:06.564Z,51.90
2019-04-04T14:39:34.994Z,53.20
2019-04-04T14:42:03.391Z,50.20
2019-04-04T14:44:31.801Z,49.10
2019-04-04T14:47:00.123Z,47.50
2019-04-04T14:49:28.518Z,46.50
2019-04-04T14:51:57.133Z,44.60
2019-04-04T14:54:24.859Z,42.80
2019-04-04T14:56:53.544Z,41.00
2019-04-04T14:59:22.229Z,40.00
2019-04-04T15:01:50.918Z,39.90
2019-04-04T15:04:18.589Z,41.70
2019-04-04T15:06:47.272Z,42.70
2019-04-04T15:09:15.961Z,43.30
2019-04-04T15:11:44.666Z,41.90
2019-04-04T15:14:13.361Z,41.90
2019-04-04T15:16:41.080Z,42.90
2019-04-04T15:19:09.722Z,44.60
2019-04-04T15:21:38.410Z,43.50
2019-04-04T15:24:06.044Z,43.30
2019-04-04T15:26:34.798Z,44.00
2019-04-04T15:29:02.445Z,45.50
2019-04-04T15:31:31.143Z,47.30
2019-04-04T15:33:58.842Z,48.50
2019-04-04T15:36:27.548Z,49.20
2019-04-04T15:38:55.247Z,49.90
2019-04-04T15:41:35.945Z,49.80
2019-04-04T15:43:53.920Z,51.20
2019-04-04T15:46:22.356Z,52.10
2019-04-04T15:48:50.970Z,52.30
2019-04-04T15:51:19.390Z,52.70
2019-04-04T15:53:48.005Z,52.60
2019-04-04T15:56:16.420Z,52.60
2019-04-04T15:58:45.106Z,54.00
2019-04-04T16:01:13.505Z,54.10
2019-04-04T16:03:42.211Z,55.50
2019-04-04T16:06:10.662Z,57.60
2019-04-04T16:08:39.065Z,57.50
2019-04-04T16:11:07.770Z,58.20
2019-04-04T16:13:36.167Z,58.90
2019-04-04T16:16:04.875Z,58.60
2019-04-04T16:18:33.543Z,58.80
2019-04-04T16:21:02.160Z,59.30
2019-04-04T16:23:30.781Z,59.40
2019-04-04T16:25:59.462Z,59.60
2019-04-04T16:28:28.159Z,59.80
2019-04-04T16:30:56.762Z,60.50
2019-04-04T16:33:26.552Z,60.10
2019-04-04T16:35:55.337Z,60.40
2019-04-04T16:38:23.955Z,60.10
2019-04-04T16:40:52.657Z,59.40
2019-04-04T16:43:21.388Z,59.90
2019-04-04T16:45:50.064Z,60.50
2019-04-04T16:48:18.765Z,60.30
2019-04-04T16:50:47.450Z,60.30
2019-04-04T16:53:16.158Z,60.70
2019-04-04T16:55:44.557Z,61.20
2019-04-04T16:58:13.201Z,61.20
2019-04-04T17:00:41.895Z,61.70
2019-04-04T17:03:10.625Z,62.10
2019-04-04T17:05:39.013Z,62.40
2019-04-04T17:08:07.659Z,62.40
2019-04-04T17:10:36.067Z,62.70
2019-04-04T17:13:04.778Z,63.30
2019-04-04T17:15:33.462Z,64.20
2019-04-04T17:18:02.074Z,63.70
2019-04-04T17:20:30.685Z,63.90
2019-04-04T17:22:59.377Z,64.20
2019-04-04T17:25:28.075Z,64.50
2019-04-04T17:27:57.024Z,64.70
2019-04-04T17:30:24.731Z,65.40
2019-04-04T17:32:53.141Z,65.80
2019-04-04T17:35:22.379Z,66.60
2019-04-04T17:37:51.629Z,67.10
2019-04-04T17:40:19.338Z,67.80
2019-04-04T17:42:47.708Z,68.20
2019-04-04T17:45:16.466Z,68.50
2019-04-04T17:47:45.277Z,69.00
2019-04-04T17:50:13.311Z,69.10
2019-04-04T17:52:42.348Z,69.90
2019-04-04T17:55:10.016Z,70.30
2019-04-04T17:57:38.518Z,71.00
2019-04-04T18:00:06.941Z,71.30
2019-04-04T18:02:35.586Z,71.50
2019-04-04T18:05:07.291Z,71.50
2019-04-04T18:07:36.305Z,71.60
2019-04-04T18:10:06.026Z,71.50
2019-04-04T18:12:40.528Z,71.50
2019-04-04T18:15:07.438Z,71.40
2019-04-04T18:17:36.417Z,72.30
2019-04-04T18:20:06.661Z,72.50
2019-04-04T18:22:35.640Z,72.70
2019-04-04T18:25:07.831Z,72.10
2019-04-04T18:27:36.794Z,72.80
2019-04-04T18:30:10.982Z,73.70
2019-04-04T18:32:39.918Z,73.80
2019-04-04T18:35:08.606Z,74.10
2019-04-04T18:37:37.404Z,74.30
2019-04-04T18:40:08.718Z,74.60
2019-04-04T18:42:37.662Z,74.90
2019-04-04T18:45:06.609Z,75.40
2019-04-04T18:47:34.254Z,75.70
2019-04-04T18:50:02.656Z,75.70
2019-04-04T18:52:31.340Z,76.20
2019-04-04T18:54:59.984Z,76.30
2019-04-04T18:57:28.622Z,76.80
2019-04-04T18:59:57.344Z,76.50
2019-04-04T19:02:26.025Z,76.50
2019-04-04T19:04:54.725Z,76.30
2019-04-04T19:07:23.430Z,76.80
2019-04-04T19:09:52.118Z,77.40
2019-04-04T19:12:20.745Z,77.70
2019-04-04T19:14:49.422Z,78.10
2019-04-04T19:17:18.063Z,78.00
2019-04-04T19:19:46.755Z,79.70
2019-04-04T19:22:15.578Z,80.20
2019-04-04T19:24:44.255Z,80.60
2019-04-04T19:27:12.986Z,81.10
2019-04-04T19:29:41.684Z,81.30
2019-04-04T19:32:10.520Z,81.30
2019-04-04T19:34:39.149Z,81.80
2019-04-04T19:37:07.824Z,81.30
2019-04-04T19:39:36.454Z,81.70
2019-04-04T19:42:05.292Z,81.90
2019-04-04T19:44:34.004Z,82.20
2019-04-04T19:47:02.691Z,82.30
2019-04-04T19:49:31.300Z,82.80
2019-04-04T19:51:59.996Z,82.70
2019-04-04T19:54:28.705Z,83.10
2019-04-04T19:56:57.404Z,83.20
2019-04-04T19:59:26.095Z,83.30
2019-04-04T20:01:54.808Z,83.20
2019-04-04T20:04:23.490Z,83.00
2019-04-04T20:06:52.190Z,82.70
2019-04-04T20:09:20.885Z,82.80
2019-04-04T20:11:49.556Z,83.30
2019-04-04T20:14:18.245Z,82.80
2019-04-04T20:16:46.898Z,82.10
2019-04-04T20:19:15.593Z,81.60
2019-04-04T20:21:44.258Z,81.10
2019-04-04T20:24:12.943Z,81.10
2019-04-04T20:26:41.554Z,82.20
2019-04-04T20:29:10.162Z,83.30
2019-04-04T20:31:38.767Z,83.50
2019-04-04T20:34:07.430Z,84.00
2019-04-04T20:36:36.147Z,83.20
2019-04-04T20:39:06.470Z,83.40
2019-04-04T20:41:37.325Z,84.10
2019-04-04T20:44:06.295Z,84.50
2019-04-04T20:46:35.030Z,84.70
2019-04-04T20:49:03.766Z,85.70
2019-04-04T20:51:32.473Z,86.40
2019-04-04T20:54:01.215Z,86.90
2019-04-04T20:56:29.913Z,86.70
2019-04-04T20:58:58.541Z,86.30
2019-04-04T21:01:27.213Z,86.40
2019-04-04T21:03:55.834Z,86.60
2019-04-04T21:06:24.507Z,87.00
2019-04-04T21:08:53.169Z,86.90
2019-04-04T21:11:21.781Z,87.20
2019-04-04T21:13:56.051Z,87.00
2019-04-04T21:16:21.128Z,86.80
2019-04-04T21:18:49.799Z,87.00
2019-04-04T21:21:18.509Z,87.20
2019-04-04T21:23:47.172Z,87.90
2019-04-04T21:26:15.799Z,87.60
2019-04-04T21:28:44.407Z,87.70
2019-04-04T21:31:13.086Z,87.60
2019-04-04T21:33:41.714Z,87.60
2019-04-04T21:36:10.316Z,87.40
2019-04-04T21:38:39.015Z,86.90
2019-04-04T21:41:07.647Z,86.50
2019-04-04T21:43:36.257Z,86.10
2019-04-04T21:46:04.944Z,85.40
2019-04-04T21:48:33.622Z,85.10
2019-04-04T21:51:02.247Z,85.10
2019-04-04T21:53:30.944Z,85.30
2019-04-04T21:55:59.568Z,85.40
2019-04-04T21:58:28.188Z,86.20
2019-04-04T22:00:56.909Z,86.20
2019-04-04T22:03:25.614Z,86.20
2019-04-04T22:05:54.317Z,85.30
2019-04-04T22:08:23.049Z,84.80
2019-04-04T22:10:51.743Z,84.90
2019-04-04T22:13:20.548Z,84.40
2019-04-04T22:15:49.247Z,84.20
2019-04-04T22:18:17.955Z,84.30
2019-04-04T22:20:46.677Z,85.00
2019-04-04T22:23:15.379Z,84.80
2019-04-04T22:25:44.097Z,84.10
2019-04-04T22:28:12.797Z,84.40
2019-04-04T22:30:41.539Z,84.50
2019-04-04T22:33:10.257Z,84.80
2019-04-04T22:35:38.943Z,84.70
2019-04-04T22:38:07.663Z,85.10
2019-04-04T22:40:36.361Z,86.40
2019-04-04T22:43:05.099Z,85.70
2019-04-04T22:45:33.804Z,85.60
2019-04-04T22:48:02.528Z,86.60
2019-04-04T22:50:31.225Z,87.40
2019-04-04T22:52:59.943Z,87.60
2019-04-04T22:55:28.645Z,87.90
2019-04-04T22:57:59.081Z,88.00
2019-04-04T23:00:28.087Z,88.10
2019-04-04T23:02:57.462Z,87.60
2019-04-04T23:05:26.488Z,87.20
2019-04-04T23:07:55.203Z,87.40
2019-04-04T23:10:23.913Z,87.10
2019-04-04T23:12:52.630Z,87.50
2019-04-04T23:15:21.363Z,87.30
2019-04-04T23:17:50.063Z,87.90
2019-04-04T23:20:18.775Z,89.40
2019-04-04T23:22:53.135Z,90.00
2019-04-04T23:25:18.126Z,90.00
2019-04-04T23:27:46.842Z,89.40
2019-04-04T23:30:15.542Z,89.60
2019-04-04T23:32:44.267Z,89.50
2019-04-04T23:35:12.963Z,89.50
2019-04-04T23:37:41.693Z,90.20
2019-04-04T23:40:10.428Z,90.70
2019-04-04T23:42:39.199Z,90.50
2019-04-04T23:45:07.875Z,90.90
2019-04-04T23:47:42.766Z,90.90
2019-04-04T23:50:07.357Z,91.30
2019-04-04T23:52:36.077Z,92.00
2019-04-04T23:55:05.580Z,92.00
2019-04-04T23:57:34.614Z,91.80
